Time;durP1;ratioP1;P1;durP2;ratioP2;P2;SDS_P1;SDS_P2;PMS_P1;PMS_P2;Temp;Humidity;BMP_temperature;BMP_pressure;BME280_temperature;BME280_humidity;BME280_pressure;Samples;Min_cycle;Max_cycle;Signal;HPM_P1;HPM_P2
2022/04/17 00:01:36;;;;;;;6.25;2.22;;;5.70;92.40;;;;;;4991162;28;20082;-62
2022/04/17 00:04:02;;;;;;;4.85;2.25;;;5.90;92.50;;;;;;4987275;28;20027;-62
2022/04/17 00:06:28;;;;;;;6.45;2.45;;;5.90;92.00;;;;;;4987271;28;20022;-62
2022/04/17 00:08:53;;;;;;;6.90;3.25;;;5.90;92.30;;;;;;4989925;28;20034;-61
2022/04/17 00:11:19;;;;;;;7.05;2.63;;;5.90;92.10;;;;;;4979750;28;20047;-61
2022/04/17 00:13:44;;;;;;;6.68;2.20;;;5.80;92.30;;;;;;4989970;28;20022;-61
2022/04/17 00:16:10;;;;;;;5.47;2.28;;;5.80;92.80;;;;;;4998133;28;20022;-63
2022/04/17 00:18:37;;;;;;;5.13;1.65;;;5.90;92.40;;;;;;4991524;28;20375;-63
2022/04/17 00:21:03;;;;;;;7.05;2.17;;;5.90;93.00;;;;;;4987526;28;20034;-63
2022/04/17 00:23:29;;;;;;;5.93;2.08;;;6.00;92.80;;;;;;4990884;28;20084;-63
2022/04/17 00:25:55;;;;;;;9.07;2.97;;;6.00;92.60;;;;;;4986737;28;20026;-63
2022/04/17 00:28:21;;;;;;;6.55;2.47;;;6.10;92.40;;;;;;4977380;28;20033;-63
2022/04/17 00:30:47;;;;;;;8.02;2.53;;;6.10;92.50;;;;;;4990621;28;20050;-63
2022/04/17 00:33:13;;;;;;;6.85;2.88;;;6.10;92.60;;;;;;4989216;28;20487;-63
2022/04/17 00:35:41;;;;;;;6.75;2.20;;;6.00;92.50;;;;;;4991104;28;20022;-63
2022/04/17 00:38:06;;;;;;;5.55;2.30;;;5.90;93.00;;;;;;4991175;28;20029;-63
2022/04/17 00:40:32;;;;;;;9.32;2.60;;;5.80;93.00;;;;;;4988021;28;20387;-62
2022/04/17 00:42:59;;;;;;;4.47;1.90;;;6.00;93.40;;;;;;4987713;28;20812;-63
2022/04/17 00:45:25;;;;;;;7.25;2.63;;;6.10;92.90;;;;;;4988377;28;20027;-62
2022/04/17 00:47:51;;;;;;;4.47;1.80;;;5.90;93.40;;;;;;4990246;28;20463;-62
2022/04/17 00:50:17;;;;;;;4.07;1.73;;;5.90;93.50;;;;;;4990174;28;20041;-62
2022/04/17 00:52:44;;;;;;;7.88;2.72;;;5.70;93.60;;;;;;4990713;28;20030;-62
2022/04/17 00:55:10;;;;;;;5.07;1.88;;;5.60;94.10;;;;;;4990113;28;20470;-63
2022/04/17 00:57:37;;;;;;;6.15;2.10;;;5.50;95.00;;;;;;4987015;28;20022;-63
2022/04/17 01:00:05;;;;;;;8.00;3.08;;;5.20;95.20;;;;;;4986993;28;20113;-63
2022/04/17 01:02:31;;;;;;;5.25;2.03;;;5.10;96.50;;;;;;4988839;28;20118;-63
2022/04/17 01:04:57;;;;;;;5.13;1.77;;;5.00;96.90;;;;;;4988148;28;20172;-62
2022/04/17 01:07:23;;;;;;;5.25;2.10;;;5.00;97.70;;;;;;4986285;28;20105;-63
2022/04/17 01:09:50;;;;;;;6.63;3.08;;;5.10;98.10;;;;;;4988319;28;20026;-62
2022/04/17 01:12:17;;;;;;;5.85;2.13;;;5.00;98.40;;;;;;4987665;28;20121;-63
2022/04/17 01:14:44;;;;;;;5.68;2.03;;;5.00;98.60;;;;;;4987808;28;20058;-62
2022/04/17 01:17:10;;;;;;;8.45;2.15;;;5.00;99.20;;;;;;4990157;28;20530;-63
2022/04/17 01:19:37;;;;;;;5.13;2.10;;;4.80;99.50;;;;;;4989178;28;20014;-62
2022/04/17 01:22:07;;;;;;;9.93;2.47;;;4.70;99.70;;;;;;4990061;28;20048;-63
2022/04/17 01:27:19;;;;;;;4.38;2.15;;;4.40;99.90;;;;;;4985654;28;20368;-63
2022/04/17 01:29:46;;;;;;;4.22;1.85;;;4.30;99.90;;;;;;4990139;28;20050;-63
2022/04/17 01:32:12;;;;;;;6.90;2.25;;;4.20;99.90;;;;;;4984879;28;20050;-63
2022/04/17 01:34:38;;;;;;;6.00;2.30;;;4.20;99.90;;;;;;4989863;28;20390;-63
2022/04/17 01:37:05;;;;;;;7.93;2.40;;;4.10;99.90;;;;;;4987134;28;20062;-63
2022/04/17 01:39:31;;;;;;;6.05;2.25;;;4.10;99.90;;;;;;4985598;28;20376;-63
2022/04/17 01:41:58;;;;;;;4.90;1.92;;;4.00;99.90;;;;;;5003350;28;20054;-64
2022/04/17 01:44:25;;;;;;;5.18;2.05;;;3.90;99.90;;;;;;4986486;28;20039;-63
2022/04/17 01:46:51;;;;;;;6.82;2.55;;;3.90;99.90;;;;;;4990277;28;20026;-63
2022/04/17 01:49:18;;;;;;;7.72;2.55;;;3.90;99.90;;;;;;4989831;28;20101;-63
2022/04/17 01:51:46;;;;;;;10.90;2.80;;;3.90;99.90;;;;;;4990369;28;20068;-63
2022/04/17 01:54:16;;;;;;;6.85;2.95;;;4.20;99.90;;;;;;4990049;28;20073;-63
2022/04/17 01:56:43;;;;;;;4.47;1.88;;;4.20;99.90;;;;;;5000127;28;20034;-63
2022/04/17 01:59:10;;;;;;;5.88;1.90;;;4.30;99.90;;;;;;4998855;28;20026;-63
2022/04/17 02:01:37;;;;;;;4.75;1.45;;;4.50;99.90;;;;;;4989697;28;20109;-63
2022/04/17 02:04:05;;;;;;;6.30;2.08;;;4.60;99.90;;;;;;4989952;28;20022;-63
2022/04/17 02:06:31;;;;;;;3.53;1.52;;;4.70;99.90;;;;;;4988711;28;20033;-63
2022/04/17 02:08:57;;;;;;;7.43;2.30;;;4.90;99.90;;;;;;4993591;28;20053;-63
2022/04/17 02:11:24;;;;;;;6.25;2.15;;;5.00;99.90;;;;;;4992859;28;20030;-63
2022/04/17 02:13:50;;;;;;;4.63;1.90;;;5.10;99.90;;;;;;4989937;28;20037;-63
2022/04/17 02:16:17;;;;;;;5.50;2.33;;;5.10;99.90;;;;;;4992697;28;20018;-63
2022/04/17 02:18:46;;;;;;;4.50;2.25;;;5.10;99.90;;;;;;4985600;28;20496;-63
2022/04/17 02:21:13;;;;;;;8.27;2.17;;;5.40;99.90;;;;;;4993376;28;20391;-63
2022/04/17 02:23:41;;;;;;;4.63;2.17;;;5.50;99.90;;;;;;4991135;28;20430;-63
2022/04/17 02:26:06;;;;;;;9.65;3.05;;;5.50;99.90;;;;;;4992691;28;20018;-63
2022/04/17 02:28:35;;;;;;;6.00;2.38;;;5.60;99.90;;;;;;4989790;28;20398;-63
2022/04/17 02:31:04;;;;;;;7.28;2.28;;;5.60;99.90;;;;;;4999705;28;20449;-63
2022/04/17 02:33:30;;;;;;;4.38;1.92;;;5.60;99.90;;;;;;4992531;28;20548;-63
2022/04/17 02:35:57;;;;;;;5.22;1.95;;;5.50;99.90;;;;;;4991868;28;20038;-63
2022/04/17 02:38:23;;;;;;;4.25;1.52;;;5.30;99.90;;;;;;4992150;28;20105;-63
2022/04/17 02:40:48;;;;;;;3.33;1.65;;;5.10;99.90;;;;;;4992937;28;20054;-63
2022/04/17 02:43:14;;;;;;;5.78;2.03;;;4.90;99.90;;;;;;5000537;28;20085;-63
2022/04/17 02:45:40;;;;;;;5.50;2.42;;;4.90;99.90;;;;;;4989371;28;20033;-63
2022/04/17 02:48:06;;;;;;;5.60;2.28;;;4.80;99.90;;;;;;4988937;28;20045;-63
2022/04/17 02:50:31;;;;;;;6.70;2.40;;;4.90;99.90;;;;;;4992127;28;20537;-63
2022/04/17 02:52:57;;;;;;;5.28;1.90;;;4.80;99.90;;;;;;4990638;28;20045;-63
2022/04/17 02:55:23;;;;;;;5.80;2.28;;;4.70;99.90;;;;;;4991994;28;20107;-63
2022/04/17 02:57:49;;;;;;;4.47;2.22;;;4.50;99.90;;;;;;4991294;28;20060;-62
2022/04/17 03:00:15;;;;;;;15.57;1.67;;;4.20;99.90;;;;;;4992842;28;20098;-63
2022/04/17 03:05:36;;;;;;;4.65;2.15;;;3.90;99.90;;;;;;4992371;28;20045;-63
2022/04/17 03:08:22;;;;;;;7.32;1.92;;;3.70;99.90;;;;;;4992806;28;20034;-63
2022/04/17 03:10:47;;;;;;;5.50;2.00;;;3.50;99.90;;;;;;4988470;28;20522;-63
2022/04/17 03:13:14;;;;;;;5.20;1.83;;;3.50;99.90;;;;;;4999539;28;20058;-63
2022/04/17 03:15:39;;;;;;;5.75;2.25;;;3.60;99.90;;;;;;4991510;28;20105;-63
2022/04/17 03:18:06;;;;;;;8.07;2.47;;;3.40;99.90;;;;;;4991682;28;20594;-63
2022/04/17 03:20:32;;;;;;;3.95;2.05;;;3.30;99.90;;;;;;4991805;28;20077;-63
2022/04/17 03:22:58;;;;;;;5.53;1.88;;;3.20;99.90;;;;;;4992497;28;20483;-63
2022/04/17 03:25:23;;;;;;;4.03;2.00;;;3.10;99.90;;;;;;4991930;28;20030;-63
2022/04/17 03:27:49;;;;;;;7.10;3.10;;;3.00;99.90;;;;;;4986799;28;20426;-63
2022/04/17 03:30:16;;;;;;;5.18;1.65;;;2.90;99.90;;;;;;4985964;28;20165;-63
2022/04/17 03:32:43;;;;;;;3.67;1.92;;;2.90;99.90;;;;;;4991481;28;20029;-63
2022/04/17 03:35:13;;;;;;;3.90;1.75;;;2.90;99.90;;;;;;4990042;28;20075;-63
2022/04/17 03:37:42;;;;;;;7.13;2.45;;;2.90;99.90;;;;;;4991294;28;20027;-63
2022/04/17 03:40:09;;;;;;;2.90;1.52;;;2.80;99.90;;;;;;4988432;28;20069;-63
2022/04/17 03:42:35;;;;;;;4.50;2.03;;;2.70;99.90;;;;;;4985295;28;20037;-63
2022/04/17 03:45:02;;;;;;;5.88;2.20;;;2.80;99.90;;;;;;4995915;28;20052;-63
2022/04/17 03:47:28;;;;;;;6.35;2.47;;;2.70;99.90;;;;;;4989078;28;20018;-63
2022/04/17 03:49:54;;;;;;;7.80;2.25;;;2.70;99.90;;;;;;4989987;28;20482;-63
2022/04/17 03:52:19;;;;;;;5.30;2.35;;;2.70;99.90;;;;;;4987775;28;20034;-63
2022/04/17 03:54:45;;;;;;;5.05;2.17;;;3.30;99.90;;;;;;4991288;28;20578;-63
2022/04/17 03:57:11;;;;;;;3.13;1.75;;;2.90;99.90;;;;;;4984597;28;20061;-63
2022/04/17 03:59:37;;;;;;;4.63;1.88;;;2.80;99.90;;;;;;4991052;28;20053;-63
2022/04/17 04:02:03;;;;;;;5.38;2.17;;;2.70;99.90;;;;;;4991908;28;20521;-63
2022/04/17 04:04:29;;;;;;;5.47;2.80;;;2.50;99.90;;;;;;4990753;28;20389;-63
2022/04/17 04:06:54;;;;;;;6.15;1.95;;;2.70;99.90;;;;;;4990960;28;20034;-63
2022/04/17 04:09:20;;;;;;;8.43;3.22;;;2.60;99.90;;;;;;4990475;28;20031;-63
2022/04/17 04:11:47;;;;;;;3.50;1.50;;;2.50;99.90;;;;;;4995775;28;20698;-63
2022/04/17 04:14:12;;;;;;;3.95;1.88;;;2.50;99.90;;;;;;4990692;28;20097;-63
2022/04/17 04:16:39;;;;;;;3.42;1.83;;;2.40;99.90;;;;;;4990415;28;20493;-63
2022/04/17 04:19:05;;;;;;;6.20;2.45;;;2.40;99.90;;;;;;4987295;28;20382;-63
2022/04/17 04:21:31;;;;;;;17.77;1.90;;;2.40;99.90;;;;;;4990760;28;20026;-63
2022/04/17 04:23:57;;;;;;;8.00;1.92;;;2.30;99.90;;;;;;4988510;28;20030;-63
2022/04/17 04:26:22;;;;;;;3.08;1.60;;;2.30;99.90;;;;;;4989390;28;20261;-63
2022/04/17 04:28:48;;;;;;;5.32;2.13;;;2.20;99.90;;;;;;4988494;28;20027;-63
2022/04/17 04:31:17;;;;;;;9.65;1.77;;;2.30;99.90;;;;;;4989070;28;20054;-63
2022/04/17 04:33:43;;;;;;;12.52;2.38;;;2.20;99.90;;;;;;4983282;28;20050;-63
2022/04/17 04:36:11;;;;;;;4.70;1.75;;;2.30;99.90;;;;;;4990734;28;20417;-63
2022/04/17 04:38:38;;;;;;;3.03;1.42;;;2.10;99.90;;;;;;4987848;28;20022;-63
2022/04/17 04:41:04;;;;;;;4.88;2.08;;;;;;;;;;4986232;28;20069;-63
2022/04/17 04:43:30;;;;;;;6.05;2.53;;;2.10;99.90;;;;;;4982199;28;20061;-63
2022/04/17 04:46:08;;;;;;;7.03;2.72;;;2.20;99.90;;;;;;4991394;28;20057;-63
2022/04/17 04:51:22;;;;;;;5.15;2.33;;;2.10;99.90;;;;;;4987560;28;20398;-63
2022/04/17 04:53:49;;;;;;;5.07;2.22;;;1.90;99.90;;;;;;4988829;28;20022;-63
2022/04/17 04:56:15;;;;;;;5.72;2.13;;;1.90;99.90;;;;;;4988941;28;20711;-63
2022/04/17 04:58:42;;;;;;;7.32;2.38;;;1.80;99.90;;;;;;4990428;28;20026;-63
2022/04/17 05:01:07;;;;;;;6.70;1.98;;;2.00;99.90;;;;;;4990647;28;20033;-63
2022/04/17 05:03:34;;;;;;;8.00;2.88;;;2.00;99.90;;;;;;4989606;28;20038;-63
2022/04/17 05:05:59;;;;;;;9.07;2.65;;;2.00;99.90;;;;;;4990586;28;20053;-63
2022/04/17 05:08:25;;;;;;;6.00;2.65;;;2.00;99.90;;;;;;4990636;28;20053;-63
2022/04/17 05:10:51;;;;;;;6.85;2.53;;;2.00;99.90;;;;;;4989261;28;20033;-63
2022/04/17 05:13:17;;;;;;;6.25;1.85;;;2.20;99.90;;;;;;4987921;28;20027;-63
2022/04/17 05:15:42;;;;;;;8.77;2.90;;;2.30;99.90;;;;;;4989487;28;20052;-63
2022/04/17 05:18:08;;;;;;;5.50;2.38;;;2.40;99.90;;;;;;4987022;28;20029;-63
2022/04/17 05:20:34;;;;;;;11.82;2.70;;;2.40;99.90;;;;;;4988325;28;20031;-63
2022/04/17 05:23:22;;;;;;;6.25;2.72;;;2.30;99.90;;;;;;4990868;28;20371;-63
2022/04/17 05:25:51;;;;;;;8.40;2.60;;;2.30;99.90;;;;;;4988551;28;20473;-63
2022/04/17 05:28:17;;;;;;;6.90;3.05;;;2.40;99.90;;;;;;4994614;28;20034;-63
2022/04/17 05:30:44;;;;;;;9.50;3.20;;;2.50;99.90;;;;;;4989280;28;20038;-63
2022/04/17 05:33:10;;;;;;;13.05;3.33;;;2.50;99.90;;;;;;4989469;28;20433;-63
2022/04/17 05:35:37;;;;;;;6.10;2.85;;;2.70;99.90;;;;;;4988464;28;20497;-63
2022/04/17 05:38:03;;;;;;;5.68;2.58;;;2.70;99.90;;;;;;4986733;28;20029;-63
2022/04/17 05:40:53;;;;;;;6.18;2.65;;;2.80;99.90;;;;;;4989545;28;20014;-63
2022/04/17 05:43:21;;;;;;;8.27;3.60;;;2.90;99.90;;;;;;4992286;28;20058;-63
2022/04/17 05:45:48;;;;;;;6.93;2.75;;;3.00;99.90;;;;;;4992529;28;20026;-63
2022/04/17 05:48:14;;;;;;;8.35;3.05;;;3.00;99.90;;;;;;4994389;28;20610;-63
2022/04/17 05:50:41;;;;;;;7.32;3.03;;;3.10;99.90;;;;;;4993359;28;20105;-63
2022/04/17 05:53:07;;;;;;;7.30;3.38;;;3.20;99.90;;;;;;4990668;28;20022;-63
2022/04/17 05:55:35;;;;;;;8.10;3.53;;;3.30;99.90;;;;;;4989963;28;20506;-63
2022/04/17 05:58:01;;;;;;;8.75;3.13;;;3.40;99.90;;;;;;5017878;28;20030;-63
2022/04/17 06:00:27;;;;;;;6.43;2.90;;;3.50;99.90;;;;;;4994186;28;20383;-63
2022/04/17 06:02:53;;;;;;;8.07;3.53;;;3.70;99.90;;;;;;4993265;28;20026;-63
2022/04/17 06:05:19;;;;;;;7.13;2.53;;;3.90;99.90;;;;;;4984511;28;20031;-63
2022/04/17 06:07:44;;;;;;;8.27;3.03;;;4.00;99.90;;;;;;4989277;28;20027;-63
2022/04/17 06:10:12;;;;;;;9.35;3.55;;;4.10;99.90;;;;;;4991699;28;20049;-63
2022/04/17 06:12:39;;;;;;;9.55;3.60;;;4.40;99.90;;;;;;5006706;28;20022;-63
2022/04/17 06:15:06;;;;;;;7.22;2.53;;;4.70;99.90;;;;;;4993770;28;20069;-63
2022/04/17 06:17:39;;;;;;;12.75;3.65;;;4.70;99.90;;;;;;4991765;28;20028;-63
2022/04/17 06:20:06;;;;;;;10.25;3.63;;;5.10;99.90;;;;;;4989412;28;20521;-63
2022/04/17 06:22:33;;;;;;;5.90;2.92;;;5.40;99.90;;;;;;4992233;28;20021;-63
2022/04/17 06:24:59;;;;;;;7.75;3.25;;;5.60;99.90;;;;;;4991432;28;20073;-63
2022/04/17 06:27:25;;;;;;;8.75;2.50;;;5.70;99.90;;;;;;4991511;28;20030;-63
2022/04/17 06:29:50;;;;;;;8.52;3.33;;;6.00;99.90;;;;;;4992540;28;20050;-63
2022/04/17 06:32:16;;;;;;;10.57;3.42;;;6.10;99.90;;;;;;4987932;28;20122;-63
2022/04/17 06:34:41;;;;;;;7.05;3.00;;;6.20;99.90;;;;;;4991775;28;20480;-63
2022/04/17 06:37:07;;;;;;;7.60;2.65;;;6.50;99.90;;;;;;4992988;28;20011;-63
2022/04/17 06:39:33;;;;;;;5.68;2.30;;;6.50;99.90;;;;;;4992490;28;20034;-63
2022/04/17 06:41:58;;;;;;;5.30;2.20;;;6.60;99.90;;;;;;4992978;28;20031;-63
2022/04/17 06:44:24;;;;;;;9.07;3.17;;;6.60;99.90;;;;;;4993075;28;20482;-63
2022/04/17 06:46:49;;;;;;;8.73;2.15;;;6.60;99.90;;;;;;4991200;28;20079;-63
2022/04/17 06:49:15;;;;;;;9.70;2.50;;;6.80;99.90;;;;;;4992094;28;20027;-63
2022/04/17 06:51:41;;;;;;;5.50;2.13;;;7.00;99.90;;;;;;4991989;28;20033;-63
2022/04/17 06:54:08;;;;;;;7.00;2.20;;;7.20;99.90;;;;;;4991955;28;20382;-63
2022/04/17 06:56:34;;;;;;;6.05;2.40;;;7.30;99.90;;;;;;4991113;28;20029;-64
2022/04/17 06:59:01;;;;;;;3.08;1.30;;;7.60;99.90;;;;;;4991506;28;20026;-63
2022/04/17 07:01:27;;;;;;;4.63;1.85;;;7.70;99.90;;;;;;4991612;28;20030;-63
2022/04/17 07:03:52;;;;;;;3.63;1.35;;;7.80;99.90;;;;;;4991383;28;20029;-63
2022/04/17 07:06:18;;;;;;;5.60;1.33;;;8.10;99.90;;;;;;4990500;28;20037;-63
2022/04/17 07:08:44;;;;;;;3.45;1.50;;;8.40;99.90;;;;;;4989795;28;20474;-63
2022/04/17 07:11:09;;;;;;;3.47;1.40;;;8.60;99.20;;;;;;4992165;28;20022;-63
2022/04/17 07:13:35;;;;;;;4.03;1.15;;;8.80;97.90;;;;;;4992737;28;20026;-63
2022/04/17 07:16:00;;;;;;;3.70;1.70;;;8.90;98.30;;;;;;4988972;28;20032;-63
2022/04/17 07:18:26;;;;;;;2.22;1.15;;;8.90;98.40;;;;;;4989428;28;20018;-63
2022/04/17 07:20:51;;;;;;;2.85;1.40;;;9.00;98.60;;;;;;4986505;28;20022;-63
2022/04/17 07:23:18;;;;;;;3.08;1.10;;;9.00;98.70;;;;;;4990788;28;20495;-63
2022/04/17 07:25:44;;;;;;;4.05;1.52;;;9.10;97.30;;;;;;4993191;28;20026;-63
2022/04/17 07:28:14;;;;;;;4.00;1.52;;;9.20;96.90;;;;;;4987477;28;20026;-63
2022/04/17 07:30:40;;;;;;;3.28;1.48;;;9.30;96.70;;;;;;4991025;28;20092;-63
2022/04/17 07:33:06;;;;;;;3.60;1.55;;;9.50;96.80;;;;;;4990413;28;20117;-63
2022/04/17 07:35:31;;;;;;;4.82;1.55;;;9.60;96.50;;;;;;4987984;28;20019;-63
2022/04/17 07:38:00;;;;;;;4.85;1.40;;;9.70;96.60;;;;;;4987969;28;20049;-63
2022/04/17 07:40:28;;;;;;;4.13;1.40;;;9.90;96.90;;;;;;4989120;28;20022;-63
2022/04/17 07:42:56;;;;;;;3.97;1.48;;;10.00;95.70;;;;;;4990155;28;20119;-63
2022/04/17 07:45:22;;;;;;;4.03;1.60;;;10.10;95.50;;;;;;4989069;28;20026;-63
2022/04/17 07:47:50;;;;;;;4.82;1.80;;;10.30;95.10;;;;;;4988929;28;20044;-63
2022/04/17 07:50:23;;;;;;;4.10;1.38;;;10.40;94.70;;;;;;4991077;28;20022;-63
2022/04/17 07:52:50;;;;;;;3.17;1.17;;;10.40;94.40;;;;;;4988356;28;20030;-63
2022/04/17 07:55:17;;;;;;;4.88;1.50;;;10.40;93.90;;;;;;4988649;28;20023;-63
2022/04/17 08:00:32;;;;;;;1.83;1.05;;;10.70;93.90;;;;;;4987050;28;20113;-63
2022/04/17 08:03:10;;;;;;;3.67;1.40;;;10.90;93.50;;;;;;4990930;28;20026;-63
2022/04/17 08:05:39;;;;;;;3.15;1.13;;;11.00;93.70;;;;;;4986700;28;20030;-63
2022/04/17 08:08:06;;;;;;;8.23;1.33;;;11.00;92.80;;;;;;4987985;28;20030;-63
2022/04/17 08:10:33;;;;;;;3.08;1.20;;;11.00;92.80;;;;;;4989084;28;20023;-63
2022/04/17 08:12:59;;;;;;;4.90;1.60;;;11.20;93.80;;;;;;4996288;28;20031;-63
2022/04/17 08:15:24;;;;;;;3.28;1.40;;;11.30;92.50;;;;;;4991396;28;20049;-63
2022/04/17 08:17:50;;;;;;;4.45;1.45;;;11.50;92.30;;;;;;4990658;28;20077;-64
2022/04/17 08:20:15;;;;;;;2.75;1.27;;;12.10;93.10;;;;;;4982522;28;20029;-63
2022/04/17 08:22:41;;;;;;;2.67;1.15;;;13.00;90.50;;;;;;4987839;28;20026;-63
2022/04/17 08:25:07;;;;;;;3.10;1.23;;;13.50;85.90;;;;;;4988687;28;20058;-63
2022/04/17 08:27:32;;;;;;;3.13;1.08;;;13.70;84.70;;;;;;4986620;28;20494;-63
2022/04/17 08:29:59;;;;;;;3.30;1.15;;;14.20;85.10;;;;;;4988647;28;20510;-63
2022/04/17 08:32:25;;;;;;;3.88;1.20;;;14.40;81.50;;;;;;4990084;28;20054;-64
2022/04/17 08:34:50;;;;;;;3.53;1.45;;;14.50;81.10;;;;;;4988454;28;20061;-63
2022/04/17 08:37:17;;;;;;;4.40;1.10;;;14.90;80.30;;;;;;4984582;28;20813;-63
2022/04/17 08:39:42;;;;;;;2.42;1.00;;;15.40;77.40;;;;;;4985871;28;20050;-64
2022/04/17 08:42:10;;;;;;;3.00;1.13;;;15.70;74.00;;;;;;4989421;28;20533;-63
2022/04/17 08:44:35;;;;;;;2.55;1.08;;;15.90;75.10;;;;;;4989951;28;20554;-63
2022/04/17 08:47:02;;;;;;;3.17;1.10;;;15.70;72.00;;;;;;4989139;28;20113;-63
2022/04/17 08:49:28;;;;;;;1.55;0.90;;;16.10;73.10;;;;;;4987567;28;20104;-64
2022/04/17 08:51:55;;;;;;;3.10;1.17;;;16.50;71.60;;;;;;4987434;28;20502;-64
2022/04/17 08:54:24;;;;;;;4.60;1.05;;;16.50;71.40;;;;;;4988010;28;20018;-64
2022/04/17 08:56:51;;;;;;;3.72;1.02;;;17.40;68.50;;;;;;4987852;28;20022;-64
2022/04/17 08:59:16;;;;;;;3.45;1.10;;;17.40;70.00;;;;;;4989880;28;20457;-64
2022/04/17 09:01:42;;;;;;;3.20;0.90;;;17.80;67.70;;;;;;4989531;28;20114;-64
2022/04/17 09:04:08;;;;;;;4.15;1.10;;;18.20;69.20;;;;;;4990046;28;20019;-64
2022/04/17 09:06:35;;;;;;;3.72;1.10;;;18.70;68.70;;;;;;4989848;28;20044;-64
2022/04/17 09:09:05;;;;;;;3.28;1.20;;;18.70;67.40;;;;;;4988524;28;20018;-64
2022/04/17 09:11:33;;;;;;;4.57;1.42;;;18.50;68.60;;;;;;4986422;28;20026;-64
2022/04/17 09:14:01;;;;;;;5.28;1.52;;;17.50;68.50;;;;;;4989542;28;20434;-64
2022/04/17 09:16:38;;;;;;;3.22;1.30;;;16.90;70.70;;;;;;4991823;28;20023;-64
2022/04/17 09:19:16;;;;;;;2.53;0.90;;;17.10;68.20;;;;;;4988976;28;20019;-64
2022/04/17 09:21:42;;;;;;;3.35;1.27;;;18.20;69.30;;;;;;4992281;28;20036;-64
2022/04/17 09:24:28;;;;;;;3.00;1.02;;;19.20;63.90;;;;;;4992876;28;20041;-64
2022/04/17 09:26:56;;;;;;;2.85;1.00;;;18.60;65.00;;;;;;4989945;28;20061;-64
2022/04/17 09:29:26;;;;;;;3.28;1.10;;;19.40;69.20;;;;;;4993817;28;20046;-65
2022/04/17 09:31:59;;;;;;;2.70;1.00;;;18.70;68.70;;;;;;4990438;28;20034;-65
2022/04/17 09:34:25;;;;;;;4.45;1.08;;;19.90;67.40;;;;;;4993294;28;20539;-65
2022/04/17 09:36:55;;;;;;;3.40;1.20;;;20.80;62.00;;;;;;4992322;28;20419;-65
2022/04/17 09:39:20;;;;;;;5.75;1.10;;;18.00;65.80;;;;;;4992399;28;20038;-65
2022/04/17 09:41:55;;;;;;;3.95;1.30;;;19.00;65.80;;;;;;4989657;28;20195;-65
2022/04/17 09:44:38;;;;;;;3.20;0.88;;;18.70;66.60;;;;;;4992025;28;20037;-64
2022/04/17 09:47:06;;;;;;;3.22;1.13;;;18.80;64.30;;;;;;4990250;28;20101;-64
2022/04/17 09:49:50;;;;;;;4.72;1.20;;;18.20;66.90;;;;;;4991890;28;20041;-64
2022/04/17 09:52:16;;;;;;;3.25;1.05;;;19.20;64.00;;;;;;5003818;28;20034;-64
2022/04/17 09:54:42;;;;;;;2.58;0.80;;;18.90;63.10;;;;;;4983660;28;20513;-64
2022/04/17 09:57:09;;;;;;;3.17;0.95;;;19.30;64.30;;;;;;4982784;28;20121;-64
2022/04/17 09:59:37;;;;;;;4.13;1.10;;;19.30;63.90;;;;;;4985477;28;20031;-64
2022/04/17 10:02:04;;;;;;;4.47;1.05;;;18.40;65.50;;;;;;4988922;28;20367;-64
2022/04/17 10:04:30;;;;;;;5.65;1.05;;;20.10;60.30;;;;;;4988901;28;20031;-64
2022/04/17 10:06:59;;;;;;;3.25;1.05;;;20.50;60.80;;;;;;4988983;28;20045;-64
2022/04/17 10:09:25;;;;;;;2.67;0.95;;;19.50;58.80;;;;;;4990777;28;20027;-65
2022/04/17 10:11:51;;;;;;;4.40;1.10;;;19.40;61.70;;;;;;4989619;28;20402;-65
2022/04/17 10:14:18;;;;;;;2.42;0.90;;;20.00;59.40;;;;;;4991322;28;20105;-64
2022/04/17 10:16:46;;;;;;;3.05;1.00;;;19.80;58.20;;;;;;4989397;28;20030;-64
2022/04/17 10:19:16;;;;;;;3.10;1.00;;;20.10;59.00;;;;;;4990012;28;20018;-64
2022/04/17 10:21:42;;;;;;;5.15;1.17;;;21.50;58.10;;;;;;4988773;28;20565;-66
2022/04/17 10:24:13;;;;;;;3.63;1.20;;;22.80;60.40;;;;;;4990706;28;20080;-65
2022/04/17 10:26:44;;;;;;;4.43;1.20;;;21.00;64.10;;;;;;4982933;28;20054;-65
2022/04/17 10:29:37;;;;;;;5.10;1.50;;;21.50;63.90;;;;;;4986492;28;20037;-65
2022/04/17 10:32:14;;;;;;;4.60;1.65;;;;;;;;;;4989024;28;20030;-65
2022/04/17 10:35:12;;;;;;;6.25;2.30;;;19.60;63.70;;;;;;4984396;28;20026;-65
2022/04/17 10:37:50;;;;;;;6.70;2.20;;;18.50;68.10;;;;;;4988877;28;20053;-64
2022/04/17 10:40:18;;;;;;;7.57;2.30;;;18.30;66.90;;;;;;4990140;28;20022;-65
2022/04/17 10:43:03;;;;;;;5.60;1.70;;;17.80;68.70;;;;;;4988738;28;20097;-65
2022/04/17 10:45:31;;;;;;;7.03;1.90;;;19.00;65.20;;;;;;4987519;28;20026;-65
2022/04/17 10:48:05;;;;;;;5.72;1.50;;;19.30;66.70;;;;;;4988088;28;20032;-65
2022/04/17 10:50:40;;;;;;;2.28;0.88;;;19.50;63.10;;;;;;4988986;28;20030;-65
2022/04/17 10:53:25;;;;;;;4.65;1.13;;;20.50;61.80;;;;;;4985970;28;20092;-65
2022/04/17 10:56:10;;;;;;;1.95;0.80;;;21.50;58.00;;;;;;4987921;28;20192;-65
2022/04/17 10:58:37;;;;;;;3.30;1.00;;;22.80;56.00;;;;;;4986565;28;20421;-65
2022/04/17 11:01:04;;;;;;;2.05;1.00;;;21.80;57.30;;;;;;4988477;28;20038;-65
2022/04/17 11:03:34;;;;;;;4.95;1.35;;;21.10;57.10;;;;;;4990217;28;20038;-65
2022/04/17 11:06:30;;;;;;;4.20;1.38;;;22.10;57.40;;;;;;4988295;28;20030;-65
2022/04/17 11:09:10;;;;;;;2.42;0.90;;;23.30;55.80;;;;;;4986645;28;20026;-65
2022/04/17 11:11:40;;;;;;;2.75;1.10;;;22.70;57.60;;;;;;4986249;28;20042;-65
2022/04/17 11:14:18;;;;;;;3.90;1.23;;;22.80;58.60;;;;;;4986730;28;20022;-65
2022/04/17 11:17:04;;;;;;;5.45;1.25;;;21.80;58.20;;;;;;4988487;28;20081;-65
2022/04/17 11:19:31;;;;;;;4.80;1.33;;;23.50;59.10;;;;;;4987639;28;20027;-65
2022/04/17 11:22:00;;;;;;;4.53;1.52;;;21.70;58.00;;;;;;4984608;28;20022;-65
2022/04/17 11:24:27;;;;;;;4.43;1.42;;;22.00;59.50;;;;;;4986232;28;20443;-65
2022/04/17 11:26:53;;;;;;;5.30;1.55;;;20.40;61.40;;;;;;4984770;28;20401;-65
2022/04/17 11:29:48;;;;;;;4.85;1.70;;;21.20;62.70;;;;;;4987770;28;20050;-65
2022/04/17 11:32:16;;;;;;;5.68;1.90;;;21.60;62.60;;;;;;4988695;28;20125;-65
2022/04/17 11:34:52;;;;;;;4.68;1.67;;;21.30;60.20;;;;;;4984859;28;20037;-65
2022/04/17 11:37:18;;;;;;;5.45;1.67;;;21.80;62.30;;;;;;4985422;28;20026;-65
2022/04/17 11:39:45;;;;;;;5.93;1.73;;;23.50;61.20;;;;;;4985397;28;20034;-65
2022/04/17 11:42:10;;;;;;;5.82;1.98;;;23.70;59.40;;;;;;4985595;28;20030;-65
2022/04/17 11:44:39;;;;;;;5.93;1.90;;;22.40;58.60;;;;;;4986759;28;20034;-65
2022/04/17 11:47:06;;;;;;;6.10;1.80;;;24.00;60.10;;;;;;4984623;28;20045;-65
2022/04/17 11:49:32;;;;;;;5.88;1.67;;;24.60;57.90;;;;;;4986533;28;20026;-65
2022/04/17 11:52:19;;;;;;;5.22;1.75;;;23.80;57.60;;;;;;4991528;28;20041;-65
2022/04/17 11:54:47;;;;;;;6.90;1.70;;;23.20;60.50;;;;;;4983387;28;20038;-65
2022/04/17 11:57:13;;;;;;;5.45;1.70;;;24.00;57.60;;;;;;4983460;28;20035;-65
2022/04/17 11:59:46;;;;;;;5.68;1.75;;;23.00;58.00;;;;;;4987471;28;20125;-66
2022/04/17 12:02:14;;;;;;;7.28;1.90;;;22.40;59.10;;;;;;4986141;28;20034;-65
2022/04/17 12:04:42;;;;;;;7.35;1.98;;;24.10;57.70;;;;;;4983727;28;20023;-65
2022/04/17 12:07:08;;;;;;;7.28;2.28;;;23.90;58.30;;;;;;4987221;28;20129;-65
2022/04/17 12:09:34;;;;;;;5.80;1.88;;;23.10;58.80;;;;;;4987702;28;20036;-65
2022/04/17 12:11:59;;;;;;;6.57;2.30;;;22.50;60.60;;;;;;4987341;28;20039;-65
2022/04/17 12:14:29;;;;;;;5.82;2.00;;;21.90;61.60;;;;;;4987710;28;20478;-65
2022/04/17 12:16:55;;;;;;;5.68;2.03;;;22.70;59.20;;;;;;4986917;28;20109;-65
2022/04/17 12:19:20;;;;;;;6.10;1.80;;;21.90;60.90;;;;;;4985887;28;20125;-65
2022/04/17 12:21:47;;;;;;;5.88;1.98;;;24.80;58.90;;;;;;4988566;28;20027;-65
2022/04/17 12:24:13;;;;;;;7.20;2.38;;;26.70;56.80;;;;;;4985668;28;20105;-65
2022/04/17 12:26:39;;;;;;;6.28;2.22;;;24.70;57.10;;;;;;4982783;28;20153;-65
2022/04/17 12:29:06;;;;;;;7.97;2.60;;;23.10;59.60;;;;;;4985732;28;20026;-66
2022/04/17 12:31:32;;;;;;;6.38;2.20;;;23.40;58.90;;;;;;4985519;28;20027;-66
2022/04/17 12:34:19;;;;;;;6.10;1.80;;;22.50;59.20;;;;;;4986437;28;20092;-65
2022/04/17 12:36:48;;;;;;;7.70;2.20;;;21.80;72.10;;;;;;4988771;28;20475;-65
2022/04/17 12:39:14;;;;;;;;;;;21.50;59.50;;;;;;4986031;28;20022;-65
2022/04/17 12:41:48;;;;;;;7.90;2.22;;;22.70;74.00;;;;;;4988424;28;20052;-66
2022/04/17 12:44:13;;;;;;;5.75;2.03;;;22.10;73.10;;;;;;4987390;28;20026;-64
2022/04/17 12:46:45;;;;;;;5.07;1.73;;;23.00;73.60;;;;;;4987554;28;20034;-65
2022/04/17 12:49:18;;;;;;;6.28;2.03;;;23.70;72.20;;;;;;4986532;28;20113;-65
2022/04/17 12:51:56;;;;;;;5.38;1.55;;;25.20;55.50;;;;;;4985725;28;20068;-65
2022/04/17 12:54:22;;;;;;;6.13;2.00;;;22.70;58.20;;;;;;4986924;28;20722;-65
2022/04/17 12:56:48;;;;;;;5.85;2.00;;;21.20;57.80;;;;;;4985394;28;20019;-65
2022/04/17 12:59:20;;;;;;;5.60;1.85;;;21.30;58.00;;;;;;4986450;28;20045;-65
2022/04/17 13:01:47;;;;;;;6.88;2.05;;;22.20;57.70;;;;;;4986707;28;20105;-65
2022/04/17 13:04:19;;;;;;;7.07;2.00;;;22.30;59.10;;;;;;4984947;28;20829;-65
2022/04/17 13:06:45;;;;;;;5.72;1.73;;;23.80;58.00;;;;;;4986833;28;20118;-65
2022/04/17 13:09:23;;;;;;;6.50;2.10;;;21.60;56.70;;;;;;4985904;28;20015;-66